createdAt,value
2023-04-16T00:00:08.351Z,89.36
2023-04-16T00:01:08.432Z,104.77
2023-04-16T00:02:08.533Z,110.17
2023-04-16T00:03:08.845Z,117.49
2023-04-16T00:04:08.711Z,107.51
2023-04-16T00:05:08.640Z,106.01
2023-04-16T00:06:08.690Z,101.91
2023-04-16T00:07:08.722Z,99.77
2023-04-16T00:08:08.778Z,97.20
2023-04-16T00:09:09.044Z,93.34
2023-04-16T00:10:08.842Z,100.01
2023-04-16T00:11:08.904Z,111.91
2023-04-16T00:12:08.943Z,106.47
2023-04-16T00:13:09.040Z,110.63
2023-04-16T00:14:09.051Z,91.96
2023-04-16T00:15:09.122Z,97.37
2023-04-16T00:16:09.192Z,90.79
2023-04-16T00:17:09.352Z,106.25
2023-04-16T00:18:09.300Z,95.73
2023-04-16T00:19:09.791Z,85.43
2023-04-16T00:20:09.387Z,90.37
2023-04-16T00:21:09.475Z,90.60
2023-04-16T00:22:09.497Z,103.50
2023-04-16T00:23:09.558Z,88.03
2023-04-16T00:24:09.603Z,84.88
2023-04-16T00:25:09.644Z,74.81
2023-04-16T00:26:09.693Z,92.50
2023-04-16T00:27:09.756Z,83.57
2023-04-16T00:28:11.098Z,78.05
2023-04-16T00:29:10.049Z,95.47
2023-04-16T00:30:09.909Z,80.38
2023-04-16T00:31:09.990Z,90.71
2023-04-16T00:32:10.011Z,86.93
2023-04-16T00:33:10.126Z,111.15
2023-04-16T00:34:10.118Z,107.68
2023-04-16T00:35:10.184Z,100.30
2023-04-16T00:36:10.248Z,100.66
2023-04-16T00:37:10.285Z,103.28
2023-04-16T00:38:10.379Z,99.68
2023-04-16T00:39:10.571Z,92.28
2023-04-16T00:40:10.444Z,98.93
2023-04-16T00:41:10.504Z,90.76
2023-04-16T00:42:10.568Z,91.71
2023-04-16T00:43:10.618Z,81.60
2023-04-16T00:44:10.665Z,84.18
2023-04-16T00:45:10.709Z,93.59
2023-04-16T00:46:10.810Z,86.06
2023-04-16T00:47:10.850Z,81.97
2023-04-16T00:48:10.868Z,95.40
2023-04-16T00:49:11.043Z,85.36
2023-04-16T00:50:10.983Z,88.04
2023-04-16T00:51:11.014Z,64.95
2023-04-16T00:52:11.088Z,65.64
2023-04-16T00:53:11.117Z,73.02
2023-04-16T00:54:11.182Z,81.42
2023-04-16T00:55:11.215Z,100.90
2023-04-16T00:56:11.261Z,100.81
2023-04-16T00:57:11.333Z,95.11
2023-04-16T00:58:11.386Z,102.59
2023-04-16T00:59:11.532Z,103.35
2023-04-16T01:00:11.499Z,101.18
2023-04-16T01:01:11.569Z,102.84
2023-04-16T01:02:11.669Z,97.16
2023-04-16T01:03:11.800Z,99.81
2023-04-16T01:04:11.825Z,105.86
2023-04-16T01:05:11.758Z,109.97
2023-04-16T01:06:11.822Z,110.87
2023-04-16T01:07:11.846Z,119.45
2023-04-16T01:08:11.899Z,116.40
2023-04-16T01:09:11.984Z,102.77
2023-04-16T01:10:12.016Z,115.60
2023-04-16T01:11:12.082Z,122.12
2023-04-16T01:12:12.142Z,113.53
2023-04-16T01:13:12.183Z,115.03
2023-04-16T01:14:12.231Z,115.43
2023-04-16T01:15:12.313Z,108.71
2023-04-16T01:16:12.377Z,97.45
2023-04-16T01:17:12.768Z,114.81
2023-04-16T01:18:12.464Z,107.76
2023-04-16T01:19:12.521Z,121.65
2023-04-16T01:20:12.589Z,128.06
2023-04-16T01:21:12.612Z,124.95
2023-04-16T01:22:12.706Z,120.76
2023-04-16T01:23:12.778Z,125.09
2023-04-16T01:24:12.778Z,126.89
2023-04-16T01:25:12.847Z,126.45
2023-04-16T01:26:12.921Z,102.14
2023-04-16T01:27:12.961Z,124.48
2023-04-16T01:28:13.020Z,123.05
2023-04-16T01:29:13.073Z,107.32
2023-04-16T01:30:13.136Z,106.17
2023-04-16T01:31:13.285Z,121.40
2023-04-16T01:32:13.238Z,96.37
2023-04-16T01:33:13.280Z,97.63
2023-04-16T01:34:13.339Z,85.61
2023-04-16T01:35:14.307Z,95.90
2023-04-16T01:36:13.466Z,87.20
2023-04-16T01:37:13.508Z,112.71
2023-04-16T01:38:13.585Z,100.92
2023-04-16T01:39:13.599Z,102.27
2023-04-16T01:40:13.724Z,112.23
2023-04-16T01:41:13.707Z,120.72
2023-04-16T01:42:13.773Z,100.43
2023-04-16T01:43:13.855Z,119.49
2023-04-16T01:44:13.871Z,121.55
2023-04-16T01:45:13.931Z,121.77
2023-04-16T01:46:14.028Z,116.04
2023-04-16T01:47:14.038Z,107.58
2023-04-16T01:48:14.085Z,108.63
2023-04-16T01:49:14.141Z,121.49
2023-04-16T01:50:14.214Z,126.56
2023-04-16T01:51:14.285Z,123.96
2023-04-16T01:52:14.313Z,138.08
2023-04-16T01:53:14.368Z,133.54
2023-04-16T01:54:14.425Z,128.14
2023-04-16T01:55:14.485Z,141.73
2023-04-16T01:56:14.546Z,122.58
2023-04-16T01:57:14.586Z,116.10
2023-04-16T01:58:14.644Z,132.70
2023-04-16T01:59:14.720Z,122.82
2023-04-16T02:00:14.740Z,132.97
2023-04-16T02:01:14.879Z,136.69
2023-04-16T02:02:14.992Z,125.86
2023-04-16T02:03:15.045Z,103.92
2023-04-16T02:04:15.000Z,109.47
2023-04-16T02:05:15.034Z,105.70
2023-04-16T02:06:15.096Z,104.71
2023-04-16T02:07:15.144Z,110.73
2023-04-16T02:08:15.209Z,119.10
2023-04-16T02:09:15.264Z,108.79
2023-04-16T02:10:15.299Z,118.76
2023-04-16T02:11:15.375Z,134.74
2023-04-16T02:12:15.425Z,121.91
2023-04-16T02:13:15.484Z,118.18
2023-04-16T02:14:15.539Z,123.66
2023-04-16T02:15:15.573Z,119.47
2023-04-16T02:16:15.704Z,123.11
2023-04-16T02:17:15.731Z,125.30
2023-04-16T02:18:15.747Z,124.21
2023-04-16T02:19:15.808Z,116.13
2023-04-16T02:20:15.864Z,112.50
2023-04-16T02:21:15.892Z,116.48
2023-04-16T02:22:15.946Z,128.27
2023-04-16T02:23:16.006Z,127.54
2023-04-16T02:24:16.065Z,134.37
2023-04-16T02:25:16.164Z,131.84
2023-04-16T02:26:16.203Z,135.94
2023-04-16T02:27:16.254Z,131.48
2023-04-16T02:28:16.280Z,130.74
2023-04-16T02:29:16.341Z,142.24
2023-04-16T02:30:16.391Z,130.31
2023-04-16T02:31:16.507Z,127.51
2023-04-16T02:32:16.588Z,116.11
2023-04-16T02:33:16.576Z,126.06
2023-04-16T02:34:16.632Z,137.45
2023-04-16T02:35:16.664Z,135.19
2023-04-16T02:36:16.715Z,133.94
2023-04-16T02:37:16.805Z,116.23
2023-04-16T02:38:16.838Z,116.30
2023-04-16T02:39:16.884Z,124.03
2023-04-16T02:40:16.928Z,140.41
2023-04-16T02:41:17.006Z,142.76
2023-04-16T02:42:17.054Z,133.34
2023-04-16T02:43:17.098Z,134.33
2023-04-16T02:44:17.150Z,142.47
2023-04-16T02:45:17.189Z,134.22
2023-04-16T02:46:17.260Z,120.03
2023-04-16T02:47:17.326Z,130.68
2023-04-16T02:48:17.374Z,136.58
2023-04-16T02:49:17.434Z,136.65
2023-04-16T02:50:17.460Z,131.63
2023-04-16T02:51:17.537Z,133.40
2023-04-16T02:52:17.572Z,139.77
2023-04-16T02:53:17.655Z,137.71
2023-04-16T02:54:17.670Z,146.50
2023-04-16T02:55:17.758Z,147.27
2023-04-16T02:56:17.799Z,150.77
2023-04-16T02:57:17.819Z,152.99
2023-04-16T02:58:18.309Z,162.01
2023-04-16T02:59:17.922Z,157.55
2023-04-16T03:00:17.996Z,151.10
2023-04-16T03:01:18.143Z,155.96
2023-04-16T03:02:18.130Z,161.61
2023-04-16T03:03:18.188Z,169.43
2023-04-16T03:04:18.293Z,158.94
2023-04-16T03:05:18.260Z,170.03
2023-04-16T03:06:18.318Z,173.06
2023-04-16T03:07:18.350Z,175.54
2023-04-16T03:08:18.418Z,158.18
2023-04-16T03:09:18.514Z,164.59
2023-04-16T03:10:18.534Z,157.35
2023-04-16T03:11:18.579Z,161.63
2023-04-16T03:12:18.625Z,159.72
2023-04-16T03:13:18.688Z,166.54
2023-04-16T03:14:18.742Z,171.08
2023-04-16T03:15:18.780Z,169.10
2023-04-16T03:16:18.898Z,164.77
2023-04-16T03:17:18.921Z,164.74
2023-04-16T03:18:18.958Z,181.50
2023-04-16T03:19:19.005Z,167.17
2023-04-16T03:20:19.095Z,158.35
2023-04-16T03:21:19.143Z,177.41
2023-04-16T03:22:19.167Z,169.89
2023-04-16T03:23:19.237Z,175.24
2023-04-16T03:24:19.272Z,180.70
2023-04-16T03:25:19.319Z,179.88
2023-04-16T03:26:19.377Z,188.66
2023-04-16T03:27:19.434Z,186.21
2023-04-16T03:28:19.493Z,176.80
2023-04-16T03:29:19.555Z,189.24
2023-04-16T03:30:19.573Z,174.42
2023-04-16T03:31:19.706Z,183.46
2023-04-16T03:32:19.743Z,174.88
2023-04-16T03:33:19.755Z,168.32
2023-04-16T03:34:19.796Z,164.42
2023-04-16T03:35:19.830Z,174.95
2023-04-16T03:36:19.893Z,175.65
2023-04-16T03:37:19.963Z,181.34
2023-04-16T03:38:19.998Z,166.47
2023-04-16T03:39:20.058Z,163.02
2023-04-16T03:40:20.099Z,175.13
2023-04-16T03:41:20.157Z,174.36
2023-04-16T03:42:20.206Z,167.93
2023-04-16T03:43:20.268Z,150.23
2023-04-16T03:44:20.289Z,166.59
2023-04-16T03:45:20.345Z,160.03
2023-04-16T03:46:20.476Z,157.58
2023-04-16T03:47:20.471Z,168.61
2023-04-16T03:48:20.500Z,180.74
2023-04-16T03:49:20.569Z,190.41
2023-04-16T03:50:20.615Z,189.02
2023-04-16T03:51:20.649Z,193.34
2023-04-16T03:52:20.722Z,191.76
2023-04-16T03:53:20.780Z,194.45
2023-04-16T03:54:22.558Z,201.34
2023-04-16T03:55:20.898Z,198.53
2023-04-16T03:56:20.940Z,193.01
2023-04-16T03:57:21.015Z,198.80
2023-04-16T03:58:21.114Z,204.45
2023-04-16T03:59:21.124Z,209.98
2023-04-16T04:00:21.171Z,214.24
2023-04-16T04:01:21.245Z,209.91
2023-04-16T04:02:21.399Z,221.91
2023-04-16T04:03:21.576Z,226.77
2023-04-16T04:04:21.498Z,214.98
2023-04-16T04:05:21.446Z,198.01
2023-04-16T04:06:21.524Z,192.72
2023-04-16T04:07:21.573Z,194.91
2023-04-16T04:08:21.656Z,203.24
2023-04-16T04:09:21.684Z,198.86
2023-04-16T04:10:21.724Z,197.34
2023-04-16T04:11:21.778Z,204.08
2023-04-16T04:12:21.842Z,198.93
2023-04-16T04:13:21.930Z,197.89
2023-04-16T04:14:21.960Z,199.02
2023-04-16T04:15:22.005Z,193.55
2023-04-16T04:16:22.114Z,191.46
2023-04-16T04:17:22.185Z,194.21
2023-04-16T04:18:22.196Z,192.89
2023-04-16T04:19:22.242Z,192.03
2023-04-16T04:20:22.283Z,199.61
2023-04-16T04:21:22.346Z,205.60
2023-04-16T04:22:22.421Z,193.64
2023-04-16T04:23:22.483Z,201.05
2023-04-16T04:24:22.584Z,208.48
2023-04-16T04:25:22.577Z,205.92
2023-04-16T04:26:22.719Z,209.22
2023-04-16T04:27:22.716Z,201.93
2023-04-16T04:28:22.784Z,211.82
2023-04-16T04:29:22.810Z,208.96
2023-04-16T04:30:22.870Z,208.20
2023-04-16T04:31:22.967Z,202.47
2023-04-16T04:32:23.031Z,209.24
2023-04-16T04:33:23.056Z,218.90
2023-04-16T04:34:23.106Z,208.26
2023-04-16T04:35:23.176Z,220.82
2023-04-16T04:36:23.193Z,212.31
2023-04-16T04:37:23.265Z,210.29
2023-04-16T04:38:23.328Z,200.90
2023-04-16T04:39:23.367Z,202.52
2023-04-16T04:40:23.430Z,225.85
2023-04-16T04:41:23.486Z,219.86
2023-04-16T04:42:23.535Z,203.37
2023-04-16T04:43:23.594Z,211.56
2023-04-16T04:44:23.670Z,208.40
2023-04-16T04:45:23.773Z,221.96
2023-04-16T04:46:23.820Z,219.39
2023-04-16T04:47:23.853Z,220.92
2023-04-16T04:48:23.895Z,232.94
2023-04-16T04:49:23.970Z,236.90
2023-04-16T04:50:24.021Z,224.06
2023-04-16T04:51:24.046Z,223.17
2023-04-16T04:52:24.107Z,238.60
2023-04-16T04:53:24.171Z,226.51
2023-04-16T04:54:24.240Z,208.58
2023-04-16T04:55:24.306Z,222.47
2023-04-16T04:56:24.367Z,223.70
2023-04-16T04:57:24.410Z,217.48
2023-04-16T04:58:24.457Z,221.85
2023-04-16T04:59:24.514Z,214.25
2023-04-16T05:00:24.568Z,210.36
2023-04-16T05:01:24.668Z,208.65
2023-04-16T05:02:24.847Z,214.86
2023-04-16T05:03:24.849Z,207.47
2023-04-16T05:04:24.841Z,194.02
2023-04-16T05:05:24.936Z,187.17
2023-04-16T05:06:25.078Z,191.76
2023-04-16T05:07:25.016Z,184.39
2023-04-16T05:08:25.083Z,187.15
2023-04-16T05:09:25.141Z,182.99
2023-04-16T05:10:25.198Z,191.27
2023-04-16T05:11:25.222Z,195.74
2023-04-16T05:12:25.317Z,195.92
2023-04-16T05:13:25.353Z,211.66
2023-04-16T05:14:25.405Z,216.46
2023-04-16T05:15:25.464Z,214.07
2023-04-16T05:16:25.545Z,202.76
2023-04-16T05:17:25.629Z,193.36
2023-04-16T05:18:25.673Z,194.97
2023-04-16T05:19:25.698Z,198.26
2023-04-16T05:20:25.738Z,202.95
2023-04-16T05:21:25.830Z,216.22
2023-04-16T05:22:25.872Z,208.51
2023-04-16T05:23:25.931Z,211.15
2023-04-16T05:24:26.017Z,215.43
2023-04-16T05:25:26.028Z,221.78
2023-04-16T05:26:26.106Z,201.75
2023-04-16T05:27:26.160Z,200.29
2023-04-16T05:28:26.191Z,198.58
2023-04-16T05:29:26.271Z,195.08
2023-04-16T05:30:26.320Z,192.67
2023-04-16T05:31:26.434Z,192.90
2023-04-16T05:32:26.479Z,202.41
2023-04-16T05:33:26.487Z,210.53
2023-04-16T05:34:26.535Z,208.42
2023-04-16T05:35:26.592Z,207.96
2023-04-16T05:36:26.638Z,204.25
2023-04-16T05:37:26.699Z,223.93
2023-04-16T05:38:26.750Z,224.52
2023-04-16T05:39:26.803Z,228.10
2023-04-16T05:40:26.848Z,215.27
2023-04-16T05:41:26.919Z,206.68
2023-04-16T05:42:26.963Z,204.37
2023-04-16T05:43:27.026Z,200.27
2023-04-16T05:44:27.094Z,198.95
2023-04-16T05:45:28.154Z,211.90
2023-04-16T05:46:27.228Z,212.82
2023-04-16T05:47:27.303Z,200.98
2023-04-16T05:48:27.297Z,199.36
2023-04-16T05:49:27.359Z,190.60
2023-04-16T05:50:27.421Z,196.77
2023-04-16T05:51:27.486Z,200.52
2023-04-16T05:52:27.533Z,206.13
2023-04-16T05:53:27.613Z,200.31
2023-04-16T05:54:27.669Z,202.57
2023-04-16T05:55:27.725Z,197.26
2023-04-16T05:56:27.760Z,191.39
2023-04-16T05:57:27.823Z,192.25
2023-04-16T05:58:27.870Z,200.07
2023-04-16T05:59:27.946Z,201.56
2023-04-16T06:00:28.000Z,190.33
2023-04-16T06:01:28.074Z,183.32
2023-04-16T06:02:28.203Z,183.17
2023-04-16T06:03:28.271Z,182.60
2023-04-16T06:04:28.215Z,176.73
2023-04-16T06:05:28.329Z,186.51
2023-04-16T06:06:28.344Z,180.79
2023-04-16T06:07:28.376Z,183.37
2023-04-16T06:08:28.445Z,182.78
2023-04-16T06:09:28.491Z,182.49
2023-04-16T06:10:28.586Z,204.04
2023-04-16T06:11:28.600Z,202.81
2023-04-16T06:12:28.663Z,209.57
2023-04-16T06:13:28.703Z,215.42
2023-04-16T06:14:28.782Z,206.33
2023-04-16T06:15:28.820Z,212.35
2023-04-16T06:16:28.906Z,221.19
2023-04-16T06:17:28.939Z,215.48
2023-04-16T06:18:29.002Z,219.94
2023-04-16T06:19:29.038Z,216.44
2023-04-16T06:20:29.190Z,205.53
2023-04-16T06:21:29.153Z,210.35
2023-04-16T06:22:29.198Z,207.72
2023-04-16T06:23:29.242Z,202.14
2023-04-16T06:24:29.338Z,207.47
2023-04-16T06:25:29.354Z,196.81
2023-04-16T06:26:29.419Z,214.73
2023-04-16T06:27:29.472Z,215.51
2023-04-16T06:28:29.509Z,228.22
2023-04-16T06:29:40.041Z,234.42
2023-04-16T06:30:30.565Z,234.51
2023-04-16T06:31:29.617Z,235.07
2023-04-16T06:32:29.631Z,231.33
2023-04-16T06:33:29.554Z,233.01
2023-04-16T06:34:29.557Z,229.71
2023-04-16T06:35:29.536Z,234.28
2023-04-16T06:36:29.535Z,221.68
2023-04-16T06:37:29.532Z,222.68
2023-04-16T06:38:29.601Z,210.63
2023-04-16T06:39:29.657Z,204.26
2023-04-16T06:40:29.720Z,203.36
2023-04-16T06:41:29.785Z,204.99
2023-04-16T06:42:29.838Z,215.14
2023-04-16T06:43:29.919Z,230.95
2023-04-16T06:44:29.979Z,219.47
2023-04-16T06:45:30.038Z,216.14
2023-04-16T06:46:30.114Z,223.55
2023-04-16T06:47:30.214Z,208.24
2023-04-16T06:48:30.221Z,218.14
2023-04-16T06:49:30.257Z,223.44
2023-04-16T06:50:30.351Z,213.61
2023-04-16T06:51:30.390Z,211.88
2023-04-16T06:52:30.473Z,227.78
2023-04-16T06:53:30.517Z,231.08
2023-04-16T06:54:30.577Z,237.62
2023-04-16T06:55:30.653Z,238.28
2023-04-16T06:56:30.708Z,242.25
2023-04-16T06:57:30.765Z,229.40
2023-04-16T06:58:30.825Z,229.30
2023-04-16T06:59:30.893Z,228.30
2023-04-16T07:00:30.948Z,229.34
2023-04-16T07:01:31.086Z,221.54
2023-04-16T07:02:31.133Z,232.22
2023-04-16T07:03:31.196Z,224.49
2023-04-16T07:04:31.170Z,218.13
2023-04-16T07:05:31.222Z,221.59
2023-04-16T07:06:31.284Z,218.35
2023-04-16T07:07:31.362Z,226.37
2023-04-16T07:08:31.412Z,212.13
2023-04-16T07:09:31.491Z,205.09
2023-04-16T07:10:31.506Z,208.40
2023-04-16T07:11:31.580Z,208.75
2023-04-16T07:12:31.648Z,212.21
2023-04-16T07:13:31.696Z,210.36
2023-04-16T07:14:31.747Z,217.77
2023-04-16T07:15:31.822Z,216.38
2023-04-16T07:16:31.885Z,206.21
2023-04-16T07:17:31.928Z,224.36
2023-04-16T07:18:31.982Z,213.22
2023-04-16T07:19:32.047Z,213.99
2023-04-16T07:20:32.089Z,201.37
2023-04-16T07:21:32.127Z,195.07
2023-04-16T07:22:32.189Z,208.68
2023-04-16T07:23:32.223Z,207.54
2023-04-16T07:24:32.284Z,224.15
2023-04-16T07:25:32.369Z,210.78
2023-04-16T07:26:32.426Z,218.14
2023-04-16T07:27:32.450Z,221.15
2023-04-16T07:28:32.528Z,211.44
2023-04-16T07:29:32.566Z,226.37
2023-04-16T07:30:32.636Z,225.41
2023-04-16T07:31:32.704Z,225.01
2023-04-16T07:32:32.766Z,234.85
2023-04-16T07:33:32.814Z,231.29
2023-04-16T07:34:32.863Z,226.73
2023-04-16T07:35:32.907Z,231.77
2023-04-16T07:36:32.971Z,220.18
2023-04-16T07:37:33.039Z,230.55
2023-04-16T07:38:33.090Z,229.52
2023-04-16T07:39:33.120Z,233.40
2023-04-16T07:40:33.198Z,231.21
2023-04-16T07:41:33.232Z,229.09
2023-04-16T07:42:33.288Z,240.38
2023-04-16T07:43:33.364Z,243.62
2023-04-16T07:44:33.439Z,239.99
2023-04-16T07:45:33.473Z,241.99
2023-04-16T07:46:45.554Z,250.00
2023-04-16T07:47:34.557Z,246.35
2023-04-16T07:48:33.528Z,250.13
2023-04-16T07:49:33.547Z,251.16
2023-04-16T07:50:33.505Z,253.44
2023-04-16T07:51:33.502Z,251.58
2023-04-16T07:52:33.501Z,238.09
2023-04-16T07:53:33.499Z,244.96
2023-04-16T07:54:33.491Z,235.52
2023-04-16T07:55:33.974Z,237.35
2023-04-16T07:56:33.549Z,243.78
2023-04-16T07:57:33.603Z,231.75
2023-04-16T07:58:33.636Z,229.40
2023-04-16T07:59:33.691Z,247.20
2023-04-16T08:00:33.783Z,234.56
2023-04-16T08:01:33.824Z,223.06
2023-04-16T08:02:33.968Z,243.40
2023-04-16T08:03:34.235Z,246.09
2023-04-16T08:04:34.074Z,241.16
2023-04-16T08:05:34.010Z,246.14
2023-04-16T08:06:34.047Z,250.00
2023-04-16T08:07:34.827Z,248.78
2023-04-16T08:08:34.162Z,249.70
2023-04-16T08:09:34.207Z,246.47
2023-04-16T08:10:34.279Z,249.53
2023-04-16T08:11:34.336Z,250.76
2023-04-16T08:12:34.386Z,244.56
2023-04-16T08:13:34.417Z,246.18
2023-04-16T08:14:34.482Z,238.31
2023-04-16T08:15:34.548Z,241.04
2023-04-16T08:16:34.584Z,240.82
2023-04-16T08:17:34.666Z,234.03
2023-04-16T08:18:34.688Z,235.16
2023-04-16T08:19:34.719Z,240.61
2023-04-16T08:20:34.776Z,241.69
2023-04-16T08:21:34.810Z,239.79
2023-04-16T08:22:34.862Z,239.22
2023-04-16T08:23:34.921Z,240.17
2023-04-16T08:24:34.970Z,241.99
2023-04-16T08:25:35.024Z,244.32
2023-04-16T08:26:35.081Z,246.24
2023-04-16T08:27:35.098Z,244.18
2023-04-16T08:28:35.161Z,250.00
2023-04-16T08:29:35.199Z,246.07
2023-04-16T08:30:35.255Z,244.29
2023-04-16T08:31:35.322Z,236.66
2023-04-16T08:32:35.374Z,238.71
2023-04-16T08:33:35.413Z,246.44
2023-04-16T08:34:35.450Z,245.43
2023-04-16T08:35:35.504Z,242.16
2023-04-16T08:36:35.551Z,244.97
2023-04-16T08:37:35.596Z,242.63
2023-04-16T08:38:35.676Z,240.93
2023-04-16T08:39:35.783Z,246.16
2023-04-16T08:40:35.757Z,247.75
2023-04-16T08:41:35.798Z,246.46
2023-04-16T08:42:35.847Z,245.96
2023-04-16T08:43:35.901Z,244.95
2023-04-16T08:44:35.932Z,236.16
2023-04-16T08:45:35.999Z,235.91
2023-04-16T08:46:36.040Z,240.53
2023-04-16T08:47:36.112Z,234.24
2023-04-16T08:48:36.102Z,235.56
2023-04-16T08:49:36.130Z,235.70
2023-04-16T08:50:36.187Z,239.83
2023-04-16T08:51:36.292Z,243.55
2023-04-16T08:52:36.273Z,242.57
2023-04-16T08:53:36.307Z,237.77
2023-04-16T08:54:36.342Z,237.21
2023-04-16T08:55:36.396Z,239.62
2023-04-16T08:56:36.432Z,242.84
2023-04-16T08:57:36.488Z,238.60
2023-04-16T08:58:36.497Z,239.43
2023-04-16T08:59:36.552Z,240.47
2023-04-16T09:00:36.599Z,243.01
2023-04-16T09:01:36.669Z,242.52
2023-04-16T09:02:36.882Z,244.10
2023-04-16T09:03:37.048Z,238.24
2023-04-16T09:04:36.821Z,235.98
2023-04-16T09:05:36.791Z,238.40
2023-04-16T09:06:36.825Z,240.47
2023-04-16T09:07:36.861Z,241.47
2023-04-16T09:08:36.890Z,242.58
2023-04-16T09:09:36.948Z,245.42
2023-04-16T09:10:36.985Z,240.32
2023-04-16T09:11:37.032Z,240.05
2023-04-16T09:12:37.022Z,240.77
2023-04-16T09:13:37.079Z,244.92
2023-04-16T09:14:37.087Z,241.04
2023-04-16T09:15:37.154Z,240.58
2023-04-16T09:16:37.206Z,240.60
2023-04-16T09:17:37.255Z,240.63
2023-04-16T09:18:37.241Z,242.62
2023-04-16T09:19:37.281Z,241.42
2023-04-16T09:20:37.318Z,238.99
2023-04-16T09:21:37.344Z,240.05
2023-04-16T09:22:37.381Z,238.40
2023-04-16T09:23:37.417Z,244.39
2023-04-16T09:24:37.460Z,238.19
2023-04-16T09:25:37.501Z,241.89
2023-04-16T09:26:37.516Z,237.98
2023-04-16T09:27:37.553Z,237.72
2023-04-16T09:28:37.599Z,238.41
2023-04-16T09:29:37.626Z,239.47
2023-04-16T09:30:37.662Z,245.81
2023-04-16T09:31:37.772Z,246.75
2023-04-16T09:32:37.754Z,242.07
2023-04-16T09:33:37.810Z,247.28
2023-04-16T09:34:37.814Z,243.66
2023-04-16T09:35:37.820Z,244.70
2023-04-16T09:36:37.879Z,247.43
2023-04-16T09:37:37.900Z,243.88
2023-04-16T09:38:37.946Z,241.83
2023-04-16T09:39:37.972Z,240.15
2023-04-16T09:40:38.017Z,239.46
2023-04-16T09:41:38.060Z,239.98
2023-04-16T09:42:38.091Z,243.90
2023-04-16T09:43:38.105Z,244.67
2023-04-16T09:44:38.165Z,243.15
2023-04-16T09:45:38.195Z,242.16
2023-04-16T09:46:38.211Z,246.91
2023-04-16T09:47:38.299Z,245.13
2023-04-16T09:48:38.262Z,243.01
2023-04-16T09:49:38.305Z,245.01
2023-04-16T09:50:38.333Z,241.18
2023-04-16T09:51:38.401Z,242.40
2023-04-16T09:52:38.405Z,240.26
2023-04-16T09:53:38.441Z,244.83
2023-04-16T09:54:38.443Z,238.26
2023-04-16T09:55:38.510Z,239.67
2023-04-16T09:56:38.529Z,240.64
2023-04-16T09:57:38.560Z,248.26
2023-04-16T09:58:38.595Z,244.64
2023-04-16T09:59:38.615Z,243.48
2023-04-16T10:00:43.246Z,248.10
2023-04-16T10:01:39.729Z,248.29
2023-04-16T10:02:38.793Z,243.13
2023-04-16T10:03:38.907Z,243.91
2023-04-16T10:04:38.616Z,244.72
2023-04-16T10:05:38.599Z,239.69
2023-04-16T10:06:38.586Z,244.51
2023-04-16T10:07:38.587Z,247.98
2023-04-16T10:08:38.596Z,245.29
2023-04-16T10:09:38.583Z,243.12
2023-04-16T10:10:38.579Z,241.23
2023-04-16T10:11:38.555Z,239.90
2023-04-16T10:12:38.572Z,234.27
2023-04-16T10:13:38.554Z,236.15
2023-04-16T10:14:38.556Z,237.23
2023-04-16T10:15:38.561Z,236.93
2023-04-16T10:16:38.613Z,234.15
2023-04-16T10:17:38.619Z,237.42
2023-04-16T10:18:38.619Z,237.32
2023-04-16T10:19:38.667Z,236.42
2023-04-16T10:20:38.684Z,238.11
2023-04-16T10:21:38.767Z,233.53
2023-04-16T10:22:38.760Z,233.12
2023-04-16T10:23:38.774Z,232.63
2023-04-16T10:24:38.772Z,229.66
2023-04-16T10:25:38.820Z,234.82
2023-04-16T10:26:38.843Z,230.25
2023-04-16T10:27:38.869Z,228.58
2023-04-16T10:28:38.916Z,228.23
2023-04-16T10:29:38.934Z,217.63
2023-04-16T10:30:39.015Z,227.29
2023-04-16T10:31:38.969Z,230.51
2023-04-16T10:32:39.052Z,228.04
2023-04-16T10:33:39.016Z,225.52
2023-04-16T10:34:39.060Z,222.78
2023-04-16T10:35:39.092Z,223.92
2023-04-16T10:36:39.116Z,220.79
2023-04-16T10:37:39.149Z,221.81
2023-04-16T10:38:39.160Z,218.90
2023-04-16T10:39:39.190Z,223.86
2023-04-16T10:40:39.261Z,222.81
2023-04-16T10:41:39.230Z,221.83
2023-04-16T10:42:39.258Z,222.30
2023-04-16T10:43:39.302Z,224.57
2023-04-16T10:44:39.392Z,220.90
2023-04-16T10:45:39.349Z,226.80
2023-04-16T10:46:39.445Z,225.07
2023-04-16T10:47:39.402Z,222.35
2023-04-16T10:48:49.204Z,220.82
2023-04-16T10:49:40.394Z,221.02
2023-04-16T10:50:39.385Z,217.04
2023-04-16T10:51:39.403Z,219.28
2023-04-16T10:52:39.393Z,218.07
2023-04-16T10:53:39.382Z,219.34
2023-04-16T10:54:39.370Z,221.53
2023-04-16T10:55:39.359Z,225.19
2023-04-16T10:56:39.347Z,226.51
2023-04-16T10:57:39.332Z,224.69
2023-04-16T10:58:39.353Z,225.71
2023-04-16T10:59:39.319Z,224.78
2023-04-16T11:00:39.322Z,221.88
2023-04-16T11:01:39.356Z,220.67
2023-04-16T11:02:39.440Z,222.15
2023-04-16T11:03:39.462Z,220.64
2023-04-16T11:04:39.423Z,219.85
2023-04-16T11:05:39.306Z,215.84
2023-04-16T11:06:39.302Z,219.17
2023-04-16T11:07:39.277Z,217.07
2023-04-16T11:08:51.216Z,214.91
2023-04-16T11:09:40.302Z,215.12
2023-04-16T11:10:39.313Z,215.13
2023-04-16T11:11:39.305Z,215.57
2023-04-16T11:12:39.285Z,215.84
2023-04-16T11:13:39.264Z,212.29
2023-04-16T11:14:39.263Z,213.65
2023-04-16T11:15:39.269Z,211.35
2023-04-16T11:16:39.258Z,215.49
2023-04-16T11:17:39.313Z,208.90
2023-04-16T11:18:41.559Z,211.87
2023-04-16T11:19:40.214Z,212.14
2023-04-16T11:20:39.210Z,212.14
2023-04-16T11:21:39.221Z,202.26
2023-04-16T11:22:39.222Z,204.72
2023-04-16T11:23:39.192Z,204.67
2023-04-16T11:24:39.201Z,206.12
2023-04-16T11:25:39.229Z,205.32
2023-04-16T11:26:39.179Z,210.74
2023-04-16T11:27:39.529Z,206.24
2023-04-16T11:28:39.174Z,203.13
2023-04-16T11:29:39.161Z,207.24
2023-04-16T11:30:39.157Z,204.49
2023-04-16T11:31:39.194Z,205.89
2023-04-16T11:32:39.203Z,199.60
2023-04-16T11:33:39.125Z,200.64
2023-04-16T11:34:39.132Z,198.10
2023-04-16T11:35:39.158Z,204.25
2023-04-16T11:36:39.145Z,206.31
2023-04-16T11:37:39.180Z,202.48
2023-04-16T11:38:39.182Z,198.23
2023-04-16T11:39:39.184Z,202.48
2023-04-16T11:40:39.236Z,199.22
2023-04-16T11:41:39.228Z,195.21
2023-04-16T11:42:39.302Z,199.28
2023-04-16T11:43:39.269Z,202.59
2023-04-16T11:44:39.300Z,201.09
2023-04-16T11:45:39.383Z,194.28
2023-04-16T11:46:39.378Z,192.81
2023-04-16T11:47:39.386Z,194.36
2023-04-16T11:48:39.381Z,188.69
2023-04-16T11:49:39.381Z,191.56
2023-04-16T11:50:39.430Z,189.12
2023-04-16T11:51:39.420Z,188.81
2023-04-16T11:52:39.462Z,196.05
2023-04-16T11:53:39.449Z,194.38
2023-04-16T11:54:39.486Z,192.51
2023-04-16T11:55:39.490Z,196.14
2023-04-16T11:56:39.507Z,201.27
2023-04-16T11:57:39.549Z,203.09
2023-04-16T11:58:43.302Z,199.70
2023-04-16T12:00:01.337Z,205.24
2023-04-16T12:00:40.533Z,205.46
2023-04-16T12:01:39.545Z,206.26
2023-04-16T12:02:39.600Z,209.02
2023-04-16T12:03:39.960Z,212.27
2023-04-16T12:04:39.621Z,211.79
2023-04-16T12:05:39.514Z,211.18
2023-04-16T12:06:39.504Z,209.74
2023-04-16T12:07:39.502Z,205.91
2023-04-16T12:08:39.468Z,212.06
2023-04-16T12:09:40.724Z,212.67
2023-04-16T12:10:39.467Z,214.15
2023-04-16T12:11:39.461Z,214.45
2023-04-16T12:12:39.442Z,212.83
2023-04-16T12:13:39.459Z,211.52
2023-04-16T12:14:39.421Z,213.45
2023-04-16T12:15:39.465Z,216.25
2023-04-16T12:16:39.465Z,208.82
2023-04-16T12:17:39.501Z,213.37
2023-04-16T12:18:39.434Z,213.11
2023-04-16T12:19:39.439Z,216.24
2023-04-16T12:20:39.458Z,214.13
2023-04-16T12:21:39.508Z,217.09
2023-04-16T12:22:39.488Z,215.25
2023-04-16T12:23:39.512Z,217.37
2023-04-16T12:24:39.525Z,219.19
2023-04-16T12:25:39.549Z,215.25
2023-04-16T12:26:39.574Z,210.91
2023-04-16T12:27:39.585Z,216.09
2023-04-16T12:28:39.592Z,217.64
2023-04-16T12:29:39.621Z,213.13